Weather History for KLUM - December, 2012

Change the Weather History Date:

Sunday, December 9, 2012

  Actual Average (KEAU) Record (KEAU)
Temperature  
Mean Temperature 30 °F 21 °F  
Max Temperature 32 °F 29 °F 56 °F (1939)
Min Temperature 28 °F 13 °F -22 °F (1927)
Degree Days  
Heating Degree Days 35 44  
Month to date heating degree days 383  
Since 1 July heating degree days 2129  
Cooling Degree Days 0 0  
Month to date cooling degree days 0  
Year to date cooling degree days 579  
Moisture  
Dew Point 29 °F    
Average Humidity 93    
Maximum Humidity 100    
Minimum Humidity 75    
Precipitation  
Precipitation 0.18 in 0.04 in 0.78 in (2012)
Month to date precipitation 0.36  
Year to date precipitation 30.34  
Snow  
Snow 0.00 in 0.40 in 12.50 in (2012)
Month to date snowfall 2.8  
Since 1 July snowfall 9.1  
Snow Depth -    
Sea Level Pressure  
Sea Level Pressure 29.92 in    
Wind  
Wind Speed 9 mph (ENE)    
Max Wind Speed 16 mph    
Max Gust Speed 21 mph    
Visibility 3 miles    
Events Snow    
T = Trace of Precipitation, MM = Missing Value Source: NWS Daily Summary

Daily Weather History Graph

Daily Weather History Graph

Search for Another Location

Airport or City:

Trip Planner

Search our weather history database for the weather conditions in past years. The results will help you decide how hot, cold, wet, or windy it might be!

Date:

Astronomy

Dec. 09, 2012 Rise Set
Actual Time 7:33 AM CST 4:26 PM CST
Civil Twilight 7:00 AM CST 4:59 PM CST
Nautical Twilight 6:23 AM CST 5:36 PM CST
Astronomical Twilight 5:47 AM CST 6:12 PM CST
Moon 2:59 AM CST (12/9) 1:40 PM CST (12/9)
Length of Visible Light 9h 59m
Length of Day
8h 52m
Waning Crescent, 18% of the Moon is Illuminated
Dec 9
Waning Crescent
Dec 13
New
Dec 19
First Quarter
Dec 28
Full
Jan 4
Last Quarter

Hourly Weather History & Observations

Time (CST) Temp. Windchill Dew Point Humidity Pressure Visibility Wind Dir Wind Speed Gust Speed Precip Events Conditions
12:15 AM 32.0 °F 27.5 °F 24.8 °F 75% 30.08 in 10.0 mi East 4.6 mph - N/A   Overcast
12:35 AM 32.0 °F 24.8 °F 24.8 °F 75% 30.07 in 10.0 mi East 8.1 mph - N/A   Overcast
1:15 AM 32.0 °F 24.2 °F 26.6 °F 80% 30.05 in 10.0 mi East 9.2 mph - N/A   Overcast
1:35 AM 32.0 °F 22.5 °F 24.8 °F 75% 30.04 in 10.0 mi East 12.7 mph - N/A   Overcast
1:55 AM 32.0 °F 23.0 °F 24.8 °F 75% 30.03 in 10.0 mi East 11.5 mph - N/A   Overcast
2:15 AM 32.0 °F 23.6 °F 24.8 °F 75% 30.03 in 10.0 mi East 10.4 mph - N/A   Overcast
2:35 AM 32.0 °F 23.0 °F 26.6 °F 80% 30.04 in 10.0 mi East 11.5 mph - N/A   Overcast
2:55 AM 32.0 °F 24.2 °F 26.6 °F 80% 30.03 in 10.0 mi East 9.2 mph - N/A   Overcast
3:15 AM 32.0 °F 23.0 °F 26.6 °F 80% 30.03 in 10.0 mi East 11.5 mph - N/A   Overcast
3:35 AM 32.0 °F 24.2 °F 26.6 °F 80% 30.03 in 3.0 mi East 9.2 mph - N/A Snow Light Snow
3:55 AM 30.2 °F 21.3 °F 28.4 °F 93% 30.01 in 1.5 mi East 10.4 mph - N/A Snow Light Snow
4:15 AM 30.2 °F 21.9 °F 28.4 °F 93% 30.01 in 1.5 mi East 9.2 mph - N/A Snow Light Snow
4:35 AM 30.2 °F 22.6 °F 28.4 °F 93% 30.01 in 1.8 mi East 8.1 mph - N/A Snow Light Snow
4:55 AM 30.2 °F 22.6 °F 28.4 °F 93% 30.01 in 2.0 mi East 8.1 mph - N/A Snow Light Snow
5:15 AM 30.2 °F 24.3 °F 28.4 °F 93% 30.02 in 1.8 mi East 5.8 mph - N/A Snow Light Snow
5:35 AM 30.2 °F 23.4 °F 28.4 °F 93% 30.02 in 1.5 mi East 6.9 mph - N/A Snow Light Snow
5:55 AM 30.2 °F 22.6 °F 30.2 °F 100% 30.01 in 1.5 mi East 8.1 mph - 0.01 in Snow Light Snow
6:35 AM 30.2 °F 21.3 °F 30.2 °F 100% 30.00 in 1.8 mi East 10.4 mph - N/A Snow Light Snow
6:55 AM 30.2 °F 21.3 °F 30.2 °F 100% 30.00 in 1.5 mi East 10.4 mph - N/A Snow Light Snow
7:15 AM 30.2 °F 21.9 °F 30.2 °F 100% 29.99 in 1.8 mi East 9.2 mph - 0.01 in Snow Light Snow
7:35 AM 30.2 °F 20.2 °F 30.2 °F 100% 29.99 in 1.5 mi East 12.7 mph - 0.01 in Snow Light Snow
7:55 AM 30.2 °F 20.8 °F 28.4 °F 93% 29.99 in 2.0 mi East 11.5 mph - 0.01 in Snow Light Snow
8:15 AM 30.2 °F 20.8 °F 28.4 °F 93% 29.99 in 1.5 mi East 11.5 mph - N/A Snow Light Snow
8:35 AM 30.2 °F 21.3 °F 28.4 °F 93% 29.99 in 1.0 mi East 10.4 mph - N/A Snow Light Snow
8:55 AM 30.2 °F 20.8 °F 30.2 °F 100% 29.99 in 1.0 mi East 11.5 mph - N/A Snow Light Snow
9:15 AM 30.2 °F 21.3 °F 30.2 °F 100% 29.99 in 1.0 mi East 10.4 mph - N/A Snow Light Snow
9:35 AM 32.0 °F 22.1 °F 30.2 °F 93% 29.98 in 1.0 mi East 13.8 mph - 0.01 in Snow Light Snow
9:55 AM 32.0 °F 22.1 °F 30.2 °F 93% 29.97 in 1.0 mi East 13.8 mph - 0.01 in Snow Light Snow
10:15 AM 32.0 °F 22.1 °F 30.2 °F 93% 29.98 in 1.0 mi East 13.8 mph - N/A Snow Light Snow
10:35 AM 32.0 °F 22.5 °F 30.2 °F 93% 29.97 in 1.0 mi East 12.7 mph - N/A Snow Light Snow
10:55 AM 32.0 °F 21.2 °F 30.2 °F 93% 29.95 in 1.0 mi East 16.1 mph 20.7 mph N/A Snow Light Snow
11:15 AM 32.0 °F 22.1 °F 30.2 °F 93% 29.93 in 0.8 mi East 13.8 mph - N/A Snow Light Snow
11:35 AM 32.0 °F 22.5 °F 30.2 °F 93% 29.93 in 0.8 mi East 12.7 mph - N/A Snow Light Snow
11:55 AM 32.0 °F 22.1 °F 30.2 °F 93% 29.91 in 0.8 mi ENE 13.8 mph - N/A Snow Light Snow
12:15 PM 32.0 °F 21.2 °F 30.2 °F 93% 29.90 in 0.5 mi ENE 16.1 mph 19.6 mph N/A Snow Light Snow
12:35 PM 32.0 °F 22.5 °F 30.2 °F 93% 29.90 in 0.8 mi ENE 12.7 mph 20.7 mph N/A Snow Light Snow
12:55 PM 32.0 °F 22.5 °F 30.2 °F 93% 29.88 in 0.5 mi ENE 12.7 mph - 0.01 in Snow Light Snow
1:15 PM 32.0 °F 23.0 °F 30.2 °F 93% 29.87 in 0.5 mi ENE 11.5 mph 17.3 mph N/A Snow Snow
1:35 PM 32.0 °F 23.6 °F 30.2 °F 93% 29.86 in 0.5 mi ENE 10.4 mph - N/A Snow Snow
1:55 PM 32.0 °F 25.6 °F 30.2 °F 93% 29.85 in 0.5 mi NE 6.9 mph - 0.01 in Snow Light Snow
2:15 PM 30.2 °F 20.8 °F 30.2 °F 100% 29.84 in 0.5 mi NE 11.5 mph - N/A Snow Snow
2:35 PM 30.2 °F 21.3 °F 30.2 °F 100% 29.83 in 0.5 mi NE 10.4 mph - 0.01 in Snow Snow
3:15 PM 30.2 °F 22.6 °F 30.2 °F 100% 29.84 in 0.2 mi NE 8.1 mph - 0.02 in Snow Snow
3:35 PM 30.2 °F 21.9 °F 30.2 °F 100% 29.84 in 0.2 mi NE 9.2 mph - 0.03 in Snow Heavy Snow
4:15 PM 30.2 °F 22.6 °F 30.2 °F 100% 29.84 in 0.2 mi ENE 8.1 mph - 0.02 in Snow Heavy Snow
4:35 PM 30.2 °F 21.9 °F 30.2 °F 100% 29.83 in 0.8 mi ENE 9.2 mph - 0.04 in Snow Snow
4:55 PM 30.2 °F 23.4 °F 30.2 °F 100% 29.83 in 0.8 mi NE 6.9 mph - 0.05 in Snow Snow
5:15 PM 30.2 °F 22.6 °F 30.2 °F 100% 29.82 in 1.0 mi NE 8.1 mph - 0.01 in Snow Snow
5:35 PM 30.2 °F 24.3 °F 30.2 °F 100% 29.83 in 1.5 mi NNE 5.8 mph - 0.02 in Snow Light Snow
5:55 PM 30.2 °F 22.6 °F 30.2 °F 100% 29.83 in 1.2 mi NNE 8.1 mph - 0.02 in Snow Light Snow
6:15 PM 30.2 °F 23.4 °F 28.4 °F 93% 29.83 in 1.5 mi NNE 6.9 mph - N/A Snow Light Snow
6:35 PM 30.2 °F 24.3 °F 28.4 °F 93% 29.83 in 1.5 mi NNE 5.8 mph - 0.01 in Snow Light Snow
6:55 PM 30.2 °F 22.6 °F 28.4 °F 93% 29.83 in 1.2 mi NNE 8.1 mph - 0.02 in Snow Light Snow
7:15 PM 30.2 °F 22.6 °F 28.4 °F 93% 29.82 in 1.2 mi North 8.1 mph - N/A Snow Light Snow
7:35 PM 30.2 °F 21.3 °F 28.4 °F 93% 29.82 in 1.2 mi North 10.4 mph - N/A Snow Light Snow
7:55 PM 30.2 °F 21.9 °F 28.4 °F 93% 29.82 in 1.5 mi North 9.2 mph - N/A Snow Light Snow
8:15 PM 30.2 °F 22.6 °F 28.4 °F 93% 29.81 in 2.5 mi North 8.1 mph - N/A Snow Light Snow
8:35 PM 30.2 °F 21.9 °F 28.4 °F 93% 29.81 in 2.5 mi North 9.2 mph - N/A Snow Light Snow
8:55 PM 30.2 °F 21.9 °F 28.4 °F 93% 29.81 in 4.0 mi NNW 9.2 mph - N/A Snow Light Snow
9:15 PM 30.2 °F 21.9 °F 28.4 °F 93% 29.81 in 4.0 mi North 9.2 mph - N/A Snow Light Snow
9:35 PM 30.2 °F 21.9 °F 28.4 °F 93% 29.81 in 4.0 mi North 9.2 mph - N/A Snow Light Snow
9:55 PM 30.2 °F 22.6 °F 28.4 °F 93% 29.81 in 3.0 mi North 8.1 mph - N/A Snow Light Snow
10:15 PM 30.2 °F 21.9 °F 28.4 °F 93% 29.81 in 5.0 mi North 9.2 mph - N/A Snow Light Snow
10:35 PM 30.2 °F 21.9 °F 28.4 °F 93% 29.81 in 5.0 mi NNW 9.2 mph - N/A Snow Light Snow
11:15 PM 30.2 °F 22.6 °F 28.4 °F 93% 29.80 in 4.0 mi NNW 8.1 mph - N/A Snow Light Snow
11:35 PM 28.4 °F 20.4 °F 28.4 °F 100% 29.81 in 4.0 mi NNW 8.1 mph - N/A Snow Light Snow
11:55 PM 28.4 °F 19.7 °F 28.4 °F 100% 29.81 in 3.0 mi NNW 9.2 mph - N/A Snow Light Snow